sensor_id;sensor_type;location;lat;lon;timestamp;P1;durP1;ratioP1;P2;durP2;ratioP2
35380;SDS011;21486;51.916;8.378;2022-11-12T00:00:29;29.58;;;14.52;;
35380;SDS011;21486;51.916;8.378;2022-11-12T00:02:55;32.30;;;15.77;;
35380;SDS011;21486;51.916;8.378;2022-11-12T00:05:21;36.33;;;16.77;;
35380;SDS011;21486;51.916;8.378;2022-11-12T00:07:46;32.28;;;15.52;;
35380;SDS011;21486;51.916;8.378;2022-11-12T00:10:12;32.67;;;15.10;;
35380;SDS011;21486;51.916;8.378;2022-11-12T00:12:38;27.73;;;14.38;;
35380;SDS011;21486;51.916;8.378;2022-11-12T00:15:03;26.40;;;13.10;;
35380;SDS011;21486;51.916;8.378;2022-11-12T00:17:29;28.55;;;13.00;;
35380;SDS011;21486;51.916;8.378;2022-11-12T00:19:55;25.55;;;12.52;;
35380;SDS011;21486;51.916;8.378;2022-11-12T00:22:21;20.88;;;11.23;;
35380;SDS011;21486;51.916;8.378;2022-11-12T00:24:47;21.13;;;11.50;;
35380;SDS011;21486;51.916;8.378;2022-11-12T00:27:12;25.43;;;11.20;;
35380;SDS011;21486;51.916;8.378;2022-11-12T00:29:38;22.17;;;10.90;;
35380;SDS011;21486;51.916;8.378;2022-11-12T00:32:04;21.47;;;11.40;;
35380;SDS011;21486;51.916;8.378;2022-11-12T00:34:30;22.05;;;10.70;;
35380;SDS011;21486;51.916;8.378;2022-11-12T00:36:56;21.40;;;11.05;;
35380;SDS011;21486;51.916;8.378;2022-11-12T00:39:22;22.75;;;11.80;;
35380;SDS011;21486;51.916;8.378;2022-11-12T00:41:48;20.15;;;11.02;;
35380;SDS011;21486;51.916;8.378;2022-11-12T00:44:14;21.05;;;11.07;;
35380;SDS011;21486;51.916;8.378;2022-11-12T00:46:39;18.38;;;10.27;;
35380;SDS011;21486;51.916;8.378;2022-11-12T00:49:05;19.70;;;9.88;;
35380;SDS011;21486;51.916;8.378;2022-11-12T00:51:31;22.73;;;10.13;;
35380;SDS011;21486;51.916;8.378;2022-11-12T00:53:56;17.03;;;9.60;;
35380;SDS011;21486;51.916;8.378;2022-11-12T00:56:22;14.75;;;8.75;;
35380;SDS011;21486;51.916;8.378;2022-11-12T00:58:48;17.33;;;9.18;;
35380;SDS011;21486;51.916;8.378;2022-11-12T01:01:14;17.35;;;9.02;;
35380;SDS011;21486;51.916;8.378;2022-11-12T01:03:40;14.82;;;8.93;;
35380;SDS011;21486;51.916;8.378;2022-11-12T01:06:08;14.55;;;8.27;;
35380;SDS011;21486;51.916;8.378;2022-11-12T01:08:36;17.60;;;9.02;;
35380;SDS011;21486;51.916;8.378;2022-11-12T01:13:34;16.00;;;8.63;;
35380;SDS011;21486;51.916;8.378;2022-11-12T01:16:04;20.77;;;8.70;;
35380;SDS011;21486;51.916;8.378;2022-11-12T01:18:30;18.55;;;9.85;;
35380;SDS011;21486;51.916;8.378;2022-11-12T01:20:58;19.03;;;9.50;;
35380;SDS011;21486;51.916;8.378;2022-11-12T01:23:30;18.60;;;9.27;;
35380;SDS011;21486;51.916;8.378;2022-11-12T01:25:57;17.73;;;9.23;;
35380;SDS011;21486;51.916;8.378;2022-11-12T01:28:22;20.15;;;9.30;;
35380;SDS011;21486;51.916;8.378;2022-11-12T01:33:03;18.27;;;10.20;;
35380;SDS011;21486;51.916;8.378;2022-11-12T01:35:29;17.03;;;9.17;;
35380;SDS011;21486;51.916;8.378;2022-11-12T01:37:55;16.93;;;10.10;;
35380;SDS011;21486;51.916;8.378;2022-11-12T01:40:20;16.60;;;9.27;;
35380;SDS011;21486;51.916;8.378;2022-11-12T01:42:50;15.43;;;9.17;;
35380;SDS011;21486;51.916;8.378;2022-11-12T01:45:16;15.88;;;9.18;;
35380;SDS011;21486;51.916;8.378;2022-11-12T01:47:42;15.70;;;8.35;;
35380;SDS011;21486;51.916;8.378;2022-11-12T01:50:24;14.60;;;8.07;;
35380;SDS011;21486;51.916;8.378;2022-11-12T01:53:01;15.05;;;8.43;;
35380;SDS011;21486;51.916;8.378;2022-11-12T01:55:31;15.15;;;8.45;;
35380;SDS011;21486;51.916;8.378;2022-11-12T02:00:28;13.95;;;7.88;;
35380;SDS011;21486;51.916;8.378;2022-11-12T02:02:55;14.50;;;7.50;;
35380;SDS011;21486;51.916;8.378;2022-11-12T02:05:23;12.57;;;7.57;;
35380;SDS011;21486;51.916;8.378;2022-11-12T02:07:50;13.38;;;7.40;;
35380;SDS011;21486;51.916;8.378;2022-11-12T02:10:17;14.60;;;7.45;;
35380;SDS011;21486;51.916;8.378;2022-11-12T02:12:46;14.43;;;7.43;;
35380;SDS011;21486;51.916;8.378;2022-11-12T02:15:32;13.77;;;7.43;;
35380;SDS011;21486;51.916;8.378;2022-11-12T02:17:58;13.70;;;7.40;;
35380;SDS011;21486;51.916;8.378;2022-11-12T02:20:23;15.57;;;7.78;;
35380;SDS011;21486;51.916;8.378;2022-11-12T02:22:49;12.95;;;8.10;;
35380;SDS011;21486;51.916;8.378;2022-11-12T02:25:16;14.32;;;8.07;;
35380;SDS011;21486;51.916;8.378;2022-11-12T02:27:46;12.77;;;6.90;;
35380;SDS011;21486;51.916;8.378;2022-11-12T02:30:16;16.20;;;7.57;;
35380;SDS011;21486;51.916;8.378;2022-11-12T02:32:43;14.95;;;8.10;;
35380;SDS011;21486;51.916;8.378;2022-11-12T02:35:08;17.40;;;8.60;;
35380;SDS011;21486;51.916;8.378;2022-11-12T02:37:34;13.57;;;7.53;;
35380;SDS011;21486;51.916;8.378;2022-11-12T02:40:00;17.85;;;8.90;;
35380;SDS011;21486;51.916;8.378;2022-11-12T02:42:25;17.65;;;8.07;;
35380;SDS011;21486;51.916;8.378;2022-11-12T02:44:51;13.70;;;7.72;;
35380;SDS011;21486;51.916;8.378;2022-11-12T02:47:17;15.45;;;7.93;;
35380;SDS011;21486;51.916;8.378;2022-11-12T02:49:42;12.52;;;7.55;;
35380;SDS011;21486;51.916;8.378;2022-11-12T02:52:08;11.60;;;7.53;;
35380;SDS011;21486;51.916;8.378;2022-11-12T02:54:35;15.73;;;7.15;;
35380;SDS011;21486;51.916;8.378;2022-11-12T02:57:00;13.88;;;7.43;;
35380;SDS011;21486;51.916;8.378;2022-11-12T02:59:26;12.27;;;7.30;;
35380;SDS011;21486;51.916;8.378;2022-11-12T03:01:51;14.23;;;7.73;;
35380;SDS011;21486;51.916;8.378;2022-11-12T03:04:17;13.77;;;7.07;;
35380;SDS011;21486;51.916;8.378;2022-11-12T03:06:42;11.63;;;6.70;;
35380;SDS011;21486;51.916;8.378;2022-11-12T03:09:09;11.37;;;7.00;;
35380;SDS011;21486;51.916;8.378;2022-11-12T03:11:35;13.45;;;7.50;;
35380;SDS011;21486;51.916;8.378;2022-11-12T03:14:01;14.75;;;7.50;;
35380;SDS011;21486;51.916;8.378;2022-11-12T03:16:27;13.63;;;8.80;;
35380;SDS011;21486;51.916;8.378;2022-11-12T03:18:52;11.02;;;7.07;;
35380;SDS011;21486;51.916;8.378;2022-11-12T03:21:18;12.65;;;7.15;;
35380;SDS011;21486;51.916;8.378;2022-11-12T03:23:43;13.85;;;7.40;;
35380;SDS011;21486;51.916;8.378;2022-11-12T03:26:09;11.15;;;6.70;;
35380;SDS011;21486;51.916;8.378;2022-11-12T03:28:35;13.73;;;7.37;;
35380;SDS011;21486;51.916;8.378;2022-11-12T03:31:00;13.37;;;7.00;;
35380;SDS011;21486;51.916;8.378;2022-11-12T03:33:26;12.27;;;6.65;;
35380;SDS011;21486;51.916;8.378;2022-11-12T03:35:52;11.55;;;6.95;;
35380;SDS011;21486;51.916;8.378;2022-11-12T03:38:19;10.88;;;6.82;;
35380;SDS011;21486;51.916;8.378;2022-11-12T03:40:44;12.30;;;6.28;;
35380;SDS011;21486;51.916;8.378;2022-11-12T03:43:10;11.48;;;6.35;;
35380;SDS011;21486;51.916;8.378;2022-11-12T03:45:35;11.80;;;6.30;;
35380;SDS011;21486;51.916;8.378;2022-11-12T03:48:01;10.65;;;6.40;;
35380;SDS011;21486;51.916;8.378;2022-11-12T03:50:27;10.18;;;6.22;;
35380;SDS011;21486;51.916;8.378;2022-11-12T03:52:55;11.18;;;6.13;;
35380;SDS011;21486;51.916;8.378;2022-11-12T03:55:22;12.52;;;6.70;;
35380;SDS011;21486;51.916;8.378;2022-11-12T03:57:49;10.55;;;6.40;;
35380;SDS011;21486;51.916;8.378;2022-11-12T04:00:16;8.60;;;5.80;;
35380;SDS011;21486;51.916;8.378;2022-11-12T04:02:42;11.07;;;5.90;;
35380;SDS011;21486;51.916;8.378;2022-11-12T04:05:08;9.63;;;6.38;;
35380;SDS011;21486;51.916;8.378;2022-11-12T04:07:59;13.57;;;6.43;;
35380;SDS011;21486;51.916;8.378;2022-11-12T04:10:46;10.27;;;6.40;;
35380;SDS011;21486;51.916;8.378;2022-11-12T04:13:12;10.93;;;6.30;;
35380;SDS011;21486;51.916;8.378;2022-11-12T04:16:00;12.88;;;6.57;;
35380;SDS011;21486;51.916;8.378;2022-11-12T04:19:04;15.73;;;7.07;;
35380;SDS011;21486;51.916;8.378;2022-11-12T04:21:51;13.23;;;6.82;;
35380;SDS011;21486;51.916;8.378;2022-11-12T04:27:13;10.88;;;6.72;;
35380;SDS011;21486;51.916;8.378;2022-11-12T04:29:43;13.75;;;6.97;;
35380;SDS011;21486;51.916;8.378;2022-11-12T04:32:30;9.68;;;5.78;;
35380;SDS011;21486;51.916;8.378;2022-11-12T04:34:57;12.93;;;6.15;;
35380;SDS011;21486;51.916;8.378;2022-11-12T04:37:24;9.82;;;6.45;;
35380;SDS011;21486;51.916;8.378;2022-11-12T04:39:51;10.98;;;6.30;;
35380;SDS011;21486;51.916;8.378;2022-11-12T04:42:17;8.88;;;5.60;;
35380;SDS011;21486;51.916;8.378;2022-11-12T04:45:03;11.45;;;6.18;;
35380;SDS011;21486;51.916;8.378;2022-11-12T04:50:05;11.27;;;6.10;;
35380;SDS011;21486;51.916;8.378;2022-11-12T04:52:35;9.40;;;5.88;;
35380;SDS011;21486;51.916;8.378;2022-11-12T04:55:00;13.13;;;6.22;;
35380;SDS011;21486;51.916;8.378;2022-11-12T04:57:26;12.93;;;6.95;;
35380;SDS011;21486;51.916;8.378;2022-11-12T04:59:52;10.25;;;6.20;;
35380;SDS011;21486;51.916;8.378;2022-11-12T05:02:17;12.85;;;6.43;;
35380;SDS011;21486;51.916;8.378;2022-11-12T05:04:43;11.03;;;6.00;;
35380;SDS011;21486;51.916;8.378;2022-11-12T05:07:09;11.43;;;6.03;;
35380;SDS011;21486;51.916;8.378;2022-11-12T05:09:35;10.18;;;6.85;;
35380;SDS011;21486;51.916;8.378;2022-11-12T05:12:01;10.93;;;6.40;;
35380;SDS011;21486;51.916;8.378;2022-11-12T05:14:27;13.07;;;6.43;;
35380;SDS011;21486;51.916;8.378;2022-11-12T05:16:52;9.32;;;6.03;;
35380;SDS011;21486;51.916;8.378;2022-11-12T05:19:18;12.02;;;6.22;;
35380;SDS011;21486;51.916;8.378;2022-11-12T05:21:44;10.95;;;6.18;;
35380;SDS011;21486;51.916;8.378;2022-11-12T05:24:29;7.35;;;5.70;;
35380;SDS011;21486;51.916;8.378;2022-11-12T05:26:59;11.57;;;5.97;;
35380;SDS011;21486;51.916;8.378;2022-11-12T05:29:25;9.93;;;6.10;;
35380;SDS011;21486;51.916;8.378;2022-11-12T05:31:51;9.87;;;5.97;;
35380;SDS011;21486;51.916;8.378;2022-11-12T05:34:16;10.83;;;6.07;;
35380;SDS011;21486;51.916;8.378;2022-11-12T05:36:42;12.00;;;6.33;;
35380;SDS011;21486;51.916;8.378;2022-11-12T05:39:07;9.33;;;5.80;;
35380;SDS011;21486;51.916;8.378;2022-11-12T05:41:33;11.23;;;6.23;;
35380;SDS011;21486;51.916;8.378;2022-11-12T05:43:59;8.77;;;5.50;;
35380;SDS011;21486;51.916;8.378;2022-11-12T05:46:24;11.57;;;6.07;;
35380;SDS011;21486;51.916;8.378;2022-11-12T05:48:50;11.48;;;6.35;;
35380;SDS011;21486;51.916;8.378;2022-11-12T05:51:15;14.10;;;6.03;;
35380;SDS011;21486;51.916;8.378;2022-11-12T05:53:41;15.13;;;6.35;;
35380;SDS011;21486;51.916;8.378;2022-11-12T05:56:07;17.48;;;5.65;;
35380;SDS011;21486;51.916;8.378;2022-11-12T05:58:34;17.75;;;5.28;;
35380;SDS011;21486;51.916;8.378;2022-11-12T06:01:00;26.35;;;6.40;;
35380;SDS011;21486;51.916;8.378;2022-11-12T06:03:26;15.47;;;5.77;;
35380;SDS011;21486;51.916;8.378;2022-11-12T06:05:52;13.02;;;5.45;;
35380;SDS011;21486;51.916;8.378;2022-11-12T06:08:18;20.13;;;6.25;;
35380;SDS011;21486;51.916;8.378;2022-11-12T06:10:47;16.05;;;6.03;;
35380;SDS011;21486;51.916;8.378;2022-11-12T06:13:13;17.98;;;6.20;;
35380;SDS011;21486;51.916;8.378;2022-11-12T06:15:39;13.77;;;5.93;;
35380;SDS011;21486;51.916;8.378;2022-11-12T06:18:05;14.97;;;5.80;;
35380;SDS011;21486;51.916;8.378;2022-11-12T06:20:31;15.20;;;6.38;;
35380;SDS011;21486;51.916;8.378;2022-11-12T06:22:56;19.40;;;5.93;;
35380;SDS011;21486;51.916;8.378;2022-11-12T06:25:22;26.20;;;5.93;;
35380;SDS011;21486;51.916;8.378;2022-11-12T06:27:48;19.70;;;6.30;;
35380;SDS011;21486;51.916;8.378;2022-11-12T06:30:13;19.33;;;5.90;;
35380;SDS011;21486;51.916;8.378;2022-11-12T06:32:39;30.67;;;6.93;;
35380;SDS011;21486;51.916;8.378;2022-11-12T06:35:05;58.33;;;7.53;;
35380;SDS011;21486;51.916;8.378;2022-11-12T06:37:31;33.95;;;7.15;;
35380;SDS011;21486;51.916;8.378;2022-11-12T06:39:56;15.63;;;5.63;;
35380;SDS011;21486;51.916;8.378;2022-11-12T06:42:22;43.97;;;6.73;;
35380;SDS011;21486;51.916;8.378;2022-11-12T06:44:48;22.85;;;6.30;;
35380;SDS011;21486;51.916;8.378;2022-11-12T06:47:13;27.20;;;5.78;;
35380;SDS011;21486;51.916;8.378;2022-11-12T06:49:39;41.17;;;6.88;;
35380;SDS011;21486;51.916;8.378;2022-11-12T06:52:04;24.23;;;5.75;;
35380;SDS011;21486;51.916;8.378;2022-11-12T06:54:30;63.83;;;7.93;;
35380;SDS011;21486;51.916;8.378;2022-11-12T06:56:56;28.55;;;6.30;;
35380;SDS011;21486;51.916;8.378;2022-11-12T06:59:21;11.82;;;5.05;;
35380;SDS011;21486;51.916;8.378;2022-11-12T07:01:47;11.97;;;6.00;;
35380;SDS011;21486;51.916;8.378;2022-11-12T07:04:13;12.23;;;5.80;;
35380;SDS011;21486;51.916;8.378;2022-11-12T07:06:38;10.65;;;5.25;;
35380;SDS011;21486;51.916;8.378;2022-11-12T07:09:04;15.33;;;5.73;;
35380;SDS011;21486;51.916;8.378;2022-11-12T07:11:30;8.98;;;4.97;;
35380;SDS011;21486;51.916;8.378;2022-11-12T07:13:56;10.63;;;4.87;;
35380;SDS011;21486;51.916;8.378;2022-11-12T07:16:21;8.27;;;4.60;;
35380;SDS011;21486;51.916;8.378;2022-11-12T07:18:48;9.30;;;4.63;;
35380;SDS011;21486;51.916;8.378;2022-11-12T07:21:14;8.48;;;4.65;;
35380;SDS011;21486;51.916;8.378;2022-11-12T07:23:42;11.93;;;4.72;;
35380;SDS011;21486;51.916;8.378;2022-11-12T07:26:17;9.10;;;4.70;;
35380;SDS011;21486;51.916;8.378;2022-11-12T07:28:44;20.13;;;5.53;;
35380;SDS011;21486;51.916;8.378;2022-11-12T07:31:11;12.00;;;4.90;;
35380;SDS011;21486;51.916;8.378;2022-11-12T07:33:38;10.85;;;4.97;;
35380;SDS011;21486;51.916;8.378;2022-11-12T07:36:04;9.63;;;4.55;;
35380;SDS011;21486;51.916;8.378;2022-11-12T07:38:33;10.90;;;4.78;;
35380;SDS011;21486;51.916;8.378;2022-11-12T07:41:04;14.38;;;5.43;;
35380;SDS011;21486;51.916;8.378;2022-11-12T07:43:32;8.13;;;4.70;;
35380;SDS011;21486;51.916;8.378;2022-11-12T07:46:00;9.38;;;5.10;;
35380;SDS011;21486;51.916;8.378;2022-11-12T07:48:30;11.98;;;5.00;;
35380;SDS011;21486;51.916;8.378;2022-11-12T07:51:04;9.43;;;4.93;;
35380;SDS011;21486;51.916;8.378;2022-11-12T07:53:37;9.82;;;4.90;;
35380;SDS011;21486;51.916;8.378;2022-11-12T07:56:04;12.20;;;6.40;;
35380;SDS011;21486;51.916;8.378;2022-11-12T07:58:31;10.40;;;5.05;;
35380;SDS011;21486;51.916;8.378;2022-11-12T08:00:57;10.75;;;5.15;;
35380;SDS011;21486;51.916;8.378;2022-11-12T08:03:32;16.45;;;5.50;;
35380;SDS011;21486;51.916;8.378;2022-11-12T08:05:58;12.68;;;5.70;;
35380;SDS011;21486;51.916;8.378;2022-11-12T08:08:25;18.63;;;5.60;;
35380;SDS011;21486;51.916;8.378;2022-11-12T08:10:56;13.77;;;5.43;;
35380;SDS011;21486;51.916;8.378;2022-11-12T08:13:23;10.98;;;5.70;;
35380;SDS011;21486;51.916;8.378;2022-11-12T08:15:49;11.77;;;5.70;;
35380;SDS011;21486;51.916;8.378;2022-11-12T08:18:15;11.45;;;5.20;;
35380;SDS011;21486;51.916;8.378;2022-11-12T08:20:41;14.53;;;5.70;;
35380;SDS011;21486;51.916;8.378;2022-11-12T08:23:07;9.97;;;5.20;;
35380;SDS011;21486;51.916;8.378;2022-11-12T08:25:32;10.35;;;5.75;;
35380;SDS011;21486;51.916;8.378;2022-11-12T08:27:58;18.75;;;5.95;;
35380;SDS011;21486;51.916;8.378;2022-11-12T08:30:28;10.48;;;5.20;;
35380;SDS011;21486;51.916;8.378;2022-11-12T08:32:57;9.45;;;4.75;;
35380;SDS011;21486;51.916;8.378;2022-11-12T08:35:26;12.80;;;4.73;;
35380;SDS011;21486;51.916;8.378;2022-11-12T08:37:56;11.25;;;5.13;;
35380;SDS011;21486;51.916;8.378;2022-11-12T08:40:26;7.60;;;4.57;;
35380;SDS011;21486;51.916;8.378;2022-11-12T08:42:59;7.13;;;3.90;;
35380;SDS011;21486;51.916;8.378;2022-11-12T08:45:27;7.07;;;3.92;;
35380;SDS011;21486;51.916;8.378;2022-11-12T08:47:57;6.82;;;3.63;;
35380;SDS011;21486;51.916;8.378;2022-11-12T08:50:24;7.60;;;3.60;;
35380;SDS011;21486;51.916;8.378;2022-11-12T08:52:49;6.72;;;3.40;;
35380;SDS011;21486;51.916;8.378;2022-11-12T08:55:15;10.68;;;3.80;;
35380;SDS011;21486;51.916;8.378;2022-11-12T08:57:41;6.43;;;3.80;;
35380;SDS011;21486;51.916;8.378;2022-11-12T09:00:10;7.93;;;4.30;;
35380;SDS011;21486;51.916;8.378;2022-11-12T09:02:37;5.87;;;4.30;;
35380;SDS011;21486;51.916;8.378;2022-11-12T09:05:03;9.10;;;4.30;;
35380;SDS011;21486;51.916;8.378;2022-11-12T09:07:29;8.48;;;4.25;;
35380;SDS011;21486;51.916;8.378;2022-11-12T09:09:55;16.75;;;4.60;;
35380;SDS011;21486;51.916;8.378;2022-11-12T09:12:21;7.93;;;4.80;;
35380;SDS011;21486;51.916;8.378;2022-11-12T09:14:46;11.67;;;4.13;;
35380;SDS011;21486;51.916;8.378;2022-11-12T09:17:12;10.53;;;4.30;;
35380;SDS011;21486;51.916;8.378;2022-11-12T09:19:39;10.27;;;4.57;;
35380;SDS011;21486;51.916;8.378;2022-11-12T09:22:04;11.20;;;4.88;;
35380;SDS011;21486;51.916;8.378;2022-11-12T09:24:30;17.67;;;4.85;;
35380;SDS011;21486;51.916;8.378;2022-11-12T09:26:55;12.02;;;4.90;;
35380;SDS011;21486;51.916;8.378;2022-11-12T09:29:21;10.50;;;5.17;;
35380;SDS011;21486;51.916;8.378;2022-11-12T09:31:47;13.13;;;5.13;;
35380;SDS011;21486;51.916;8.378;2022-11-12T09:34:12;15.23;;;5.20;;
35380;SDS011;21486;51.916;8.378;2022-11-12T09:36:38;11.43;;;4.95;;
35380;SDS011;21486;51.916;8.378;2022-11-12T09:39:04;12.75;;;4.70;;
35380;SDS011;21486;51.916;8.378;2022-11-12T09:41:38;12.68;;;6.40;;
35380;SDS011;21486;51.916;8.378;2022-11-12T09:44:08;11.00;;;5.28;;
35380;SDS011;21486;51.916;8.378;2022-11-12T09:46:43;11.48;;;4.50;;
35380;SDS011;21486;51.916;8.378;2022-11-12T09:49:31;11.25;;;4.88;;
35380;SDS011;21486;51.916;8.378;2022-11-12T09:52:03;9.75;;;4.97;;
35380;SDS011;21486;51.916;8.378;2022-11-12T09:54:38;9.07;;;4.73;;
35380;SDS011;21486;51.916;8.378;2022-11-12T09:57:08;6.50;;;3.25;;
35380;SDS011;21486;51.916;8.378;2022-11-12T09:59:36;10.65;;;3.50;;
35380;SDS011;21486;51.916;8.378;2022-11-12T10:10:21;6.83;;;3.20;;
35380;SDS011;21486;51.916;8.378;2022-11-12T10:16:03;6.55;;;3.85;;
35380;SDS011;21486;51.916;8.378;2022-11-12T10:22:20;4.95;;;3.30;;
35380;SDS011;21486;51.916;8.378;2022-11-12T10:24:52;7.78;;;3.67;;
35380;SDS011;21486;51.916;8.378;2022-11-12T10:27:23;5.93;;;3.60;;
35380;SDS011;21486;51.916;8.378;2022-11-12T10:32:48;5.13;;;3.10;;
35380;SDS011;21486;51.916;8.378;2022-11-12T10:35:19;5.07;;;3.20;;
35380;SDS011;21486;51.916;8.378;2022-11-12T10:45:29;9.63;;;3.78;;
35380;SDS011;21486;51.916;8.378;2022-11-12T10:47:55;6.80;;;4.00;;
35380;SDS011;21486;51.916;8.378;2022-11-12T10:50:35;11.70;;;4.35;;
35380;SDS011;21486;51.916;8.378;2022-11-12T10:53:10;5.72;;;3.83;;
35380;SDS011;21486;51.916;8.378;2022-11-12T10:55:39;8.55;;;4.95;;
35380;SDS011;21486;51.916;8.378;2022-11-12T10:58:22;9.65;;;5.30;;
35380;SDS011;21486;51.916;8.378;2022-11-12T11:03:44;8.97;;;4.50;;
35380;SDS011;21486;51.916;8.378;2022-11-12T11:08:49;9.27;;;4.18;;
35380;SDS011;21486;51.916;8.378;2022-11-12T11:11:26;12.27;;;4.78;;
35380;SDS011;21486;51.916;8.378;2022-11-12T11:13:54;9.57;;;5.20;;
35380;SDS011;21486;51.916;8.378;2022-11-12T11:16:26;6.43;;;4.00;;
35380;SDS011;21486;51.916;8.378;2022-11-12T11:18:57;8.30;;;4.47;;
35380;SDS011;21486;51.916;8.378;2022-11-12T11:40:36;6.68;;;3.67;;
35380;SDS011;21486;51.916;8.378;2022-11-12T11:51:02;8.15;;;3.67;;
35380;SDS011;21486;51.916;8.378;2022-11-12T11:54:57;6.53;;;3.72;;
35380;SDS011;21486;51.916;8.378;2022-11-12T11:56:57;6.85;;;4.22;;
35380;SDS011;21486;51.916;8.378;2022-11-12T12:04:51;9.45;;;4.18;;
35380;SDS011;21486;51.916;8.378;2022-11-12T12:13:36;8.63;;;4.32;;
35380;SDS011;21486;51.916;8.378;2022-11-12T12:16:40;11.17;;;6.03;;
35380;SDS011;21486;51.916;8.378;2022-11-12T12:22:02;8.95;;;4.20;;
35380;SDS011;21486;51.916;8.378;2022-11-12T12:24:38;9.52;;;5.85;;
35380;SDS011;21486;51.916;8.378;2022-11-12T12:27:26;11.05;;;5.72;;
35380;SDS011;21486;51.916;8.378;2022-11-12T12:30:08;12.73;;;5.63;;
35380;SDS011;21486;51.916;8.378;2022-11-12T12:33:01;10.93;;;5.80;;
35380;SDS011;21486;51.916;8.378;2022-11-12T12:35:58;14.52;;;8.32;;
35380;SDS011;21486;51.916;8.378;2022-11-12T12:39:03;12.43;;;7.63;;
35380;SDS011;21486;51.916;8.378;2022-11-12T12:41:57;16.80;;;9.65;;
35380;SDS011;21486;51.916;8.378;2022-11-12T12:44:24;13.23;;;8.23;;
35380;SDS011;21486;51.916;8.378;2022-11-12T12:47:13;14.20;;;8.35;;
35380;SDS011;21486;51.916;8.378;2022-11-12T12:49:42;11.95;;;6.50;;
35380;SDS011;21486;51.916;8.378;2022-11-12T12:52:11;12.07;;;6.72;;
35380;SDS011;21486;51.916;8.378;2022-11-12T13:02:56;7.55;;;3.75;;
35380;SDS011;21486;51.916;8.378;2022-11-12T13:07:52;7.43;;;3.80;;
35380;SDS011;21486;51.916;8.378;2022-11-12T13:10:32;6.05;;;4.07;;
35380;SDS011;21486;51.916;8.378;2022-11-12T13:13:22;7.53;;;3.33;;
35380;SDS011;21486;51.916;8.378;2022-11-12T13:15:51;4.90;;;2.25;;
35380;SDS011;21486;51.916;8.378;2022-11-12T13:21:12;3.53;;;2.10;;
35380;SDS011;21486;51.916;8.378;2022-11-12T13:23:46;7.00;;;2.08;;
35380;SDS011;21486;51.916;8.378;2022-11-12T13:26:48;4.20;;;2.05;;
35380;SDS011;21486;51.916;8.378;2022-11-12T13:40:44;5.25;;;2.10;;
35380;SDS011;21486;51.916;8.378;2022-11-12T13:45:46;3.80;;;2.20;;
35380;SDS011;21486;51.916;8.378;2022-11-12T13:48:17;4.70;;;2.22;;
35380;SDS011;21486;51.916;8.378;2022-11-12T13:51:00;5.80;;;1.90;;
35380;SDS011;21486;51.916;8.378;2022-11-12T13:53:29;3.30;;;2.10;;
35380;SDS011;21486;51.916;8.378;2022-11-12T13:55:57;5.25;;;1.98;;
35380;SDS011;21486;51.916;8.378;2022-11-12T13:58:34;5.22;;;2.20;;
35380;SDS011;21486;51.916;8.378;2022-11-12T14:01:04;6.07;;;2.40;;
35380;SDS011;21486;51.916;8.378;2022-11-12T14:03:31;4.03;;;2.20;;
35380;SDS011;21486;51.916;8.378;2022-11-12T14:20:13;10.57;;;2.80;;
35380;SDS011;21486;51.916;8.378;2022-11-12T14:22:50;7.45;;;3.08;;
35380;SDS011;21486;51.916;8.378;2022-11-12T14:25:18;7.38;;;3.70;;
35380;SDS011;21486;51.916;8.378;2022-11-12T14:27:49;8.18;;;2.75;;
35380;SDS011;21486;51.916;8.378;2022-11-12T14:30:17;7.17;;;2.33;;
35380;SDS011;21486;51.916;8.378;2022-11-12T14:32:48;7.00;;;2.60;;
35380;SDS011;21486;51.916;8.378;2022-11-12T14:40:42;5.70;;;2.70;;
35380;SDS011;21486;51.916;8.378;2022-11-12T14:46:03;6.88;;;3.22;;
35380;SDS011;21486;51.916;8.378;2022-11-12T14:48:32;5.95;;;3.05;;
35380;SDS011;21486;51.916;8.378;2022-11-12T14:51:08;7.28;;;3.30;;
35380;SDS011;21486;51.916;8.378;2022-11-12T14:53:42;5.43;;;3.23;;
35380;SDS011;21486;51.916;8.378;2022-11-12T14:56:26;7.38;;;3.33;;
35380;SDS011;21486;51.916;8.378;2022-11-12T14:58:57;7.80;;;3.58;;
35380;SDS011;21486;51.916;8.378;2022-11-12T15:01:24;6.65;;;3.40;;
35380;SDS011;21486;51.916;8.378;2022-11-12T15:06:36;10.80;;;4.15;;
35380;SDS011;21486;51.916;8.378;2022-11-12T15:09:03;7.53;;;3.40;;
35380;SDS011;21486;51.916;8.378;2022-11-12T15:11:31;12.90;;;3.38;;
35380;SDS011;21486;51.916;8.378;2022-11-12T15:13:58;9.30;;;3.80;;
35380;SDS011;21486;51.916;8.378;2022-11-12T15:16:31;7.28;;;3.30;;
35380;SDS011;21486;51.916;8.378;2022-11-12T15:21:33;9.25;;;3.22;;
35380;SDS011;21486;51.916;8.378;2022-11-12T15:26:38;9.15;;;4.22;;
35380;SDS011;21486;51.916;8.378;2022-11-12T15:31:44;11.57;;;3.90;;
35380;SDS011;21486;51.916;8.378;2022-11-12T15:34:42;11.50;;;3.50;;
35380;SDS011;21486;51.916;8.378;2022-11-12T15:37:05;9.95;;;3.60;;
35380;SDS011;21486;51.916;8.378;2022-11-12T15:39:40;11.50;;;3.95;;
35380;SDS011;21486;51.916;8.378;2022-11-12T15:45:01;11.32;;;4.40;;
35380;SDS011;21486;51.916;8.378;2022-11-12T15:47:33;8.25;;;3.88;;
35380;SDS011;21486;51.916;8.378;2022-11-12T15:49:58;12.82;;;4.97;;
35380;SDS011;21486;51.916;8.378;2022-11-12T15:52:24;15.52;;;4.43;;
35380;SDS011;21486;51.916;8.378;2022-11-12T15:54:50;12.32;;;4.40;;
35380;SDS011;21486;51.916;8.378;2022-11-12T15:57:16;7.70;;;4.40;;
35380;SDS011;21486;51.916;8.378;2022-11-12T15:59:56;13.65;;;5.00;;
35380;SDS011;21486;51.916;8.378;2022-11-12T16:02:38;16.02;;;5.32;;
35380;SDS011;21486;51.916;8.378;2022-11-12T16:05:03;21.45;;;5.80;;
35380;SDS011;21486;51.916;8.378;2022-11-12T16:07:33;23.13;;;6.53;;
35380;SDS011;21486;51.916;8.378;2022-11-12T16:09:59;17.20;;;8.15;;
35380;SDS011;21486;51.916;8.378;2022-11-12T16:12:24;18.33;;;7.87;;
35380;SDS011;21486;51.916;8.378;2022-11-12T16:14:50;17.95;;;8.90;;
35380;SDS011;21486;51.916;8.378;2022-11-12T16:17:16;13.30;;;7.37;;
35380;SDS011;21486;51.916;8.378;2022-11-12T16:19:42;16.00;;;8.60;;
35380;SDS011;21486;51.916;8.378;2022-11-12T16:22:08;12.30;;;8.43;;
35380;SDS011;21486;51.916;8.378;2022-11-12T16:24:39;25.48;;;11.30;;
35380;SDS011;21486;51.916;8.378;2022-11-12T16:27:06;19.23;;;11.05;;
35380;SDS011;21486;51.916;8.378;2022-11-12T16:29:41;22.70;;;11.00;;
35380;SDS011;21486;51.916;8.378;2022-11-12T16:32:10;17.63;;;10.27;;
35380;SDS011;21486;51.916;8.378;2022-11-12T16:34:37;19.17;;;10.75;;
35380;SDS011;21486;51.916;8.378;2022-11-12T16:37:02;23.48;;;11.55;;
35380;SDS011;21486;51.916;8.378;2022-11-12T16:39:28;22.73;;;11.88;;
35380;SDS011;21486;51.916;8.378;2022-11-12T16:41:55;22.17;;;11.02;;
35380;SDS011;21486;51.916;8.378;2022-11-12T16:44:21;18.83;;;11.30;;
35380;SDS011;21486;51.916;8.378;2022-11-12T16:46:46;20.60;;;11.73;;
35380;SDS011;21486;51.916;8.378;2022-11-12T16:49:12;21.23;;;12.20;;
35380;SDS011;21486;51.916;8.378;2022-11-12T16:51:39;27.27;;;12.38;;
35380;SDS011;21486;51.916;8.378;2022-11-12T16:54:05;21.02;;;12.23;;
35380;SDS011;21486;51.916;8.378;2022-11-12T16:56:31;20.10;;;11.82;;
35380;SDS011;21486;51.916;8.378;2022-11-12T16:58:57;21.77;;;12.13;;
35380;SDS011;21486;51.916;8.378;2022-11-12T17:01:24;21.80;;;11.77;;
35380;SDS011;21486;51.916;8.378;2022-11-12T17:03:52;19.17;;;12.05;;
35380;SDS011;21486;51.916;8.378;2022-11-12T17:06:19;19.45;;;11.38;;
35380;SDS011;21486;51.916;8.378;2022-11-12T17:08:46;20.33;;;11.43;;
35380;SDS011;21486;51.916;8.378;2022-11-12T17:11:12;17.50;;;10.95;;
35380;SDS011;21486;51.916;8.378;2022-11-12T17:13:39;21.73;;;12.00;;
35380;SDS011;21486;51.916;8.378;2022-11-12T17:16:05;21.40;;;12.57;;